Time;durP1;ratioP1;P1;durP2;ratioP2;P2;SDS_P1;SDS_P2;PMS_P1;PMS_P2;Temp;Humidity;BMP_temperature;BMP_pressure;BME280_temperature;BME280_humidity;BME280_pressure;Samples;Min_cycle;Max_cycle;Signal;HPM_P1;HPM_P2
2022/09/08 00:00:06;;;;;;;4.82;4.40;;;;;;;18.88;59.03;100283.63;5057825;28;20480;-28
2022/09/08 00:02:34;;;;;;;5.15;4.70;;;;;;;18.87;59.33;100281.91;5061660;28;20480;-28
2022/09/08 00:05:00;;;;;;;6.25;5.53;;;;;;;18.79;59.43;100275.13;5042812;28;20419;-28
2022/09/08 00:07:26;;;;;;;5.78;5.20;;;;;;;18.76;59.56;100280.63;5048037;28;20017;-27
2022/09/08 00:09:54;;;;;;;5.45;4.55;;;;;;;18.76;59.71;100280.63;5053695;28;20025;-28
2022/09/08 00:12:21;;;;;;;6.22;4.97;;;;;;;18.75;59.56;100273.56;5046854;28;20036;-28
2022/09/08 00:14:46;;;;;;;5.22;4.82;;;;;;;18.74;59.83;100276.28;5051704;28;20032;-28
2022/09/08 00:17:11;;;;;;;5.25;4.75;;;;;;;18.70;60.17;100278.25;5060121;28;20033;-28
2022/09/08 00:19:36;;;;;;;6.07;5.50;;;;;;;18.66;60.41;100268.66;5050708;28;20033;-28
2022/09/08 00:22:02;;;;;;;5.45;4.93;;;;;;;18.66;60.53;100268.66;5049189;28;20044;-28
2022/09/08 00:24:27;;;;;;;5.82;5.32;;;;;;;18.67;60.62;100273.06;5044475;28;20025;-28
2022/09/08 00:26:52;;;;;;;8.25;5.95;;;;;;;18.70;60.58;100267.56;5053321;28;20031;-28
2022/09/08 00:29:18;;;;;;;5.60;5.10;;;;;;;18.65;60.16;100267.81;5052515;28;20025;-28
2022/09/08 00:31:44;;;;;;;5.95;5.45;;;;;;;18.61;60.20;100260.00;5052442;28;20032;-28
2022/09/08 00:34:09;;;;;;;5.47;4.93;;;;;;;18.58;59.95;100264.56;5052463;28;20017;-28
2022/09/08 00:36:34;;;;;;;5.88;5.10;;;;;;;18.58;59.92;100261.88;5049677;28;20032;-28
2022/09/08 00:39:00;;;;;;;6.05;5.45;;;;;;;18.57;59.92;100249.47;5057507;28;20032;-28
2022/09/08 00:41:27;;;;;;;6.05;5.40;;;;;;;18.58;60.20;100253.03;5063607;28;20029;-28
2022/09/08 00:44:05;;;;;;;5.80;5.20;;;;;;;18.54;60.17;100243.44;5052662;28;20048;-27
2022/09/08 00:46:37;;;;;;;5.93;5.43;;;;;;;18.51;60.28;100238.25;5052997;28;20033;-28
2022/09/08 00:49:32;;;;;;;4.78;4.45;;;;;;;18.48;60.23;100241.94;5051063;28;20072;-28
2022/09/08 00:52:01;;;;;;;7.57;5.65;;;;;;;18.50;59.97;100236.53;5030840;28;20492;-28
2022/09/08 00:54:26;;;;;;;6.18;5.20;;;;;;;18.45;60.33;100236.75;5032410;28;20036;-28
2022/09/08 00:56:52;;;;;;;8.85;5.72;;;;;;;18.42;60.31;100236.88;5052037;28;20045;-28
2022/09/08 00:59:19;;;;;;;5.35;4.90;;;;;;;18.43;60.46;100227.94;5044998;28;20064;-28
2022/09/08 01:01:45;;;;;;;7.57;5.15;;;;;;;18.42;60.46;100228.88;5050934;28;20028;-28
2022/09/08 01:04:10;;;;;;;6.70;6.00;;;;;;;18.39;59.87;100231.69;5050916;28;20024;-28
2022/09/08 01:15:21;;;;;;;6.00;5.40;;;;;;;18.32;60.68;100199.97;5049855;28;20091;-27
2022/09/08 01:17:54;;;;;;;6.70;6.10;;;;;;;18.28;60.80;100197.53;5043487;28;20056;-29
2022/09/08 01:20:27;;;;;;;8.27;5.80;;;;;;;18.28;60.70;100190.38;5052705;28;20060;-27
2022/09/08 01:23:02;;;;;;;6.22;5.72;;;;;;;18.24;60.89;100199.47;5056233;28;20075;-28
2022/09/08 01:26:01;;;;;;;7.47;5.90;;;;;;;18.23;60.99;100208.41;5048402;28;20052;-28
2022/09/08 01:28:36;;;;;;;7.57;6.10;;;;;;;18.23;60.52;100203.09;5048985;28;20037;-28
2022/09/08 01:31:05;;;;;;;5.93;5.43;;;;;;;18.19;60.54;100214.84;5057279;28;20047;-28
2022/09/08 01:33:31;;;;;;;6.70;5.43;;;;;;;18.24;60.73;100207.47;5046475;28;20028;-29
2022/09/08 01:35:56;;;;;;;5.68;5.18;;;;;;;18.14;60.87;100204.38;5039294;28;20033;-29
2022/09/08 01:38:22;;;;;;;6.72;5.97;;;;;;;18.19;61.54;100205.06;5051469;28;20088;-29
2022/09/08 01:40:50;;;;;;;6.25;5.65;;;;;;;18.17;61.16;100208.75;5066212;28;20036;-29
2022/09/08 01:43:16;;;;;;;6.18;5.47;;;;;;;18.23;61.82;100208.41;5052537;28;20108;-28
2022/09/08 01:45:41;;;;;;;7.90;5.80;;;;;;;18.17;61.47;100190.91;5051133;28;20039;-28
2022/09/08 01:48:07;;;;;;;6.55;5.93;;;;;;;18.19;61.14;100183.69;5051505;28;20036;-29
2022/09/08 01:50:33;;;;;;;7.05;5.80;;;;;;;18.13;61.49;100181.31;5052545;28;20419;-28
2022/09/08 01:52:58;;;;;;;6.13;5.32;;;;;;;18.11;62.03;100177.00;5057059;28;20475;-28
2022/09/08 01:55:27;;;;;;;6.28;5.68;;;;;;;18.08;61.53;100169.97;5060334;28;20036;-28
2022/09/08 01:57:52;;;;;;;6.45;5.47;;;;;;;18.07;61.51;100163.78;5053301;28;20291;-28
2022/09/08 02:00:18;;;;;;;6.50;5.90;;;;;;;18.08;61.41;100154.81;5050931;28;20033;-28
2022/09/08 02:02:43;;;;;;;5.82;5.32;;;;;;;18.03;61.21;100156.84;5047847;28;20025;-28
2022/09/08 02:05:09;;;;;;;6.72;5.75;;;;;;;18.00;61.49;100142.81;5046134;28;20029;-28
2022/09/08 02:07:36;;;;;;;6.57;6.03;;;;;;;17.99;61.58;100151.75;5055456;28;20281;-28
2022/09/08 02:10:02;;;;;;;6.13;5.63;;;;;;;17.93;61.39;100143.09;5050104;28;20047;-28
2022/09/08 02:12:28;;;;;;;5.97;5.38;;;;;;;17.94;61.55;100144.81;5052607;28;20079;-27
2022/09/08 02:14:54;;;;;;;6.20;5.60;;;;;;;17.89;61.30;100145.97;5051171;28;20431;-27
2022/09/08 02:17:19;;;;;;;7.53;6.75;;;;;;;17.91;61.29;100136.13;5043111;28;20043;-27
2022/09/08 02:19:44;;;;;;;7.10;5.93;;;;;;;17.87;61.63;100137.22;5049997;28;20035;-27
2022/09/08 02:22:10;;;;;;;7.97;5.97;;;;;;;17.85;61.84;100128.41;5048952;28;20086;-27
2022/09/08 02:24:37;;;;;;;6.88;6.20;;;;;;;17.82;61.53;100127.63;5050910;28;20021;-27
2022/09/08 02:27:05;;;;;;;7.43;6.63;;;;;;;17.82;61.58;100124.97;5052199;28;20555;-27
2022/09/08 02:29:31;;;;;;;8.10;5.47;;;;;;;17.82;61.96;100130.31;5052475;28;20035;-27
2022/09/08 02:31:56;;;;;;;8.00;6.43;;;;;;;17.81;61.73;100133.03;5051131;28;20396;-27
2022/09/08 02:34:22;;;;;;;6.28;5.78;;;;;;;17.76;61.71;100138.59;5041951;28;20056;-26
2022/09/08 02:36:53;;;;;;;8.45;6.15;;;;;;;17.79;61.73;100141.09;5042988;28;20041;-27
2022/09/08 02:39:25;;;;;;;7.60;6.22;;;;;;;17.73;61.83;100144.06;5051000;28;20053;-27
2022/09/08 02:41:50;;;;;;;7.43;5.88;;;;;;;17.74;62.08;100140.44;5049990;28;20071;-27
2022/09/08 02:44:16;;;;;;;7.60;6.25;;;;;;;17.75;62.35;100139.53;5057927;28;20029;-27
2022/09/08 02:46:41;;;;;;;6.40;5.80;;;;;;;17.73;62.19;100146.72;5047626;28;20024;-27
2022/09/08 02:49:10;;;;;;;6.80;6.07;;;;;;;17.73;62.37;100148.50;5048511;28;20774;-27
2022/09/08 02:51:35;;;;;;;7.18;6.47;;;;;;;17.72;62.08;100152.13;5046608;28;20021;-27
2022/09/08 02:54:01;;;;;;;7.20;6.47;;;;;;;17.76;62.75;100149.25;5044221;28;20020;-27
2022/09/08 02:56:29;;;;;;;6.65;5.95;;;;;;;17.71;62.38;100143.28;5047937;28;20303;-27
2022/09/08 02:59:01;;;;;;;7.47;6.70;;;;;;;17.75;63.01;100150.19;5047791;28;20591;-27
2022/09/08 03:01:26;;;;;;;7.47;6.70;;;;;;;17.76;63.32;100143.91;5042274;28;20025;-28
2022/09/08 03:03:52;;;;;;;7.10;6.50;;;;;;;17.70;62.72;100141.53;5048712;28;20040;-28
2022/09/08 03:06:18;;;;;;;7.25;6.63;;;;;;;17.74;62.94;100145.78;5051651;28;20052;-28
2022/09/08 03:08:43;;;;;;;7.38;6.78;;;;;;;17.78;63.16;100133.19;5047225;28;20029;-28
2022/09/08 03:11:09;;;;;;;7.45;6.63;;;;;;;17.72;62.51;100126.34;5065102;28;20028;-28
2022/09/08 03:13:35;;;;;;;7.72;6.63;;;;;;;17.71;62.58;100119.28;5050694;28;20086;-28
2022/09/08 03:16:02;;;;;;;7.80;7.10;;;;;;;17.69;62.85;100107.81;5049176;28;20033;-28
2022/09/08 03:21:49;;;;;;;8.60;6.30;;;;;;;17.71;62.48;100095.28;5086242;28;20052;-28
2022/09/08 03:24:15;;;;;;;7.35;6.65;;;;;;;17.64;62.37;100092.03;5080021;28;20021;-28
2022/09/08 03:26:41;;;;;;;6.97;6.13;;;;;;;17.67;62.43;100083.88;5075589;28;20103;-28
2022/09/08 03:29:06;;;;;;;7.70;6.97;;;;;;;17.64;62.50;100086.69;5079863;28;20107;-29
2022/09/08 03:31:31;;;;;;;9.15;6.00;;;;;;;17.69;62.44;100091.81;5082705;28;20024;-28
2022/09/08 03:33:57;;;;;;;7.63;5.90;;;;;;;17.62;62.52;100090.38;5060648;28;20073;-28
2022/09/08 03:36:22;;;;;;;7.88;7.07;;;;;;;17.62;62.29;100082.38;5087819;28;20065;-28
2022/09/08 03:38:49;;;;;;;8.25;7.22;;;;;;;17.67;63.05;100078.56;5079892;28;20072;-28
2022/09/08 03:41:16;;;;;;;7.63;6.93;;;;;;;17.67;63.14;100078.56;5063634;28;20090;-28
2022/09/08 03:43:46;;;;;;;6.75;6.15;;;;;;;17.64;62.81;100064.50;5087526;28;20443;-28
2022/09/08 03:46:11;;;;;;;8.13;6.72;;;;;;;17.62;62.80;100066.38;5077867;28;20051;-28
2022/09/08 03:48:37;;;;;;;13.02;7.30;;;;;;;17.59;62.88;100059.41;5066148;28;20637;-28
2022/09/08 03:51:10;;;;;;;7.43;6.72;;;;;;;17.62;62.50;100058.38;5069158;28;20031;-28
2022/09/08 03:53:36;;;;;;;8.32;7.50;;;;;;;17.60;62.84;100054.94;5080272;28;20104;-28
2022/09/08 03:56:05;;;;;;;7.35;6.65;;;;;;;17.61;62.58;100059.31;5079674;28;20047;-29
2022/09/08 03:58:30;;;;;;;7.50;6.80;;;;;;;17.65;62.97;100053.78;5078639;28;20403;-29
2022/09/08 04:00:56;;;;;;;8.35;7.03;;;;;;;17.60;62.48;100061.13;5090749;28;20032;-26
2022/09/08 04:03:22;;;;;;;7.60;6.80;;;;;;;17.60;63.30;100055.78;5077311;28;20020;-29
2022/09/08 04:05:47;;;;;;;7.43;6.72;;;;;;;17.53;62.74;100049.03;5076846;28;20025;-27
2022/09/08 04:08:14;;;;;;;8.32;7.57;;;;;;;17.53;62.66;100047.22;5057142;28;20039;-29
2022/09/08 04:10:45;;;;;;;8.43;7.63;;;;;;;17.50;62.91;100049.19;5070471;28;20158;-29
2022/09/08 04:13:12;;;;;;;7.88;6.45;;;;;;;17.53;62.93;100067.69;5085500;28;20478;-29
2022/09/08 04:15:38;;;;;;;7.65;6.95;;;;;;;17.53;62.81;100065.88;5084883;28;20120;-29
2022/09/08 04:18:04;;;;;;;7.43;6.72;;;;;;;17.51;62.79;100067.75;5079119;28;20031;-28
2022/09/08 04:20:30;;;;;;;8.02;7.30;;;;;;;17.53;62.91;100063.22;5083412;28;20020;-28
2022/09/08 04:22:57;;;;;;;8.20;7.00;;;;;;;17.49;63.13;100061.66;5071574;28;20077;-29
2022/09/08 04:25:25;;;;;;;7.88;7.18;;;;;;;17.50;63.17;100066.03;5081887;28;20051;-29
2022/09/08 04:27:57;;;;;;;7.65;6.88;;;;;;;17.48;63.04;100070.59;5084249;28;20144;-27
2022/09/08 04:30:22;;;;;;;8.32;6.75;;;;;;;17.56;63.85;100075.53;5086982;28;20054;-27
2022/09/08 04:32:47;;;;;;;8.13;7.32;;;;;;;17.52;63.47;100088.16;5080338;28;20028;-28
2022/09/08 04:35:13;;;;;;;7.97;7.00;;;;;;;17.57;63.63;100094.13;5091459;28;20024;-27
2022/09/08 04:37:38;;;;;;;7.60;6.90;;;;;;;17.51;63.25;100101.56;5079611;28;20215;-27
2022/09/08 04:40:07;;;;;;;8.05;7.25;;;;;;;17.53;63.60;100103.22;5081962;28;20024;-26
2022/09/08 04:42:33;;;;;;;8.23;7.32;;;;;;;17.55;63.48;100133.31;5079260;28;20077;-27
2022/09/08 04:44:59;;;;;;;8.88;8.02;;;;;;;17.51;65.47;100174.38;5066885;28;20027;-27
2022/09/08 04:47:24;;;;;;;9.70;8.80;;;;;;;17.54;67.37;100200.91;5083757;28;20032;-29
2022/09/08 04:49:50;;;;;;;9.82;8.82;;;;;;;17.59;68.35;100181.16;5073785;28;20021;-29
2022/09/08 04:52:16;;;;;;;12.20;9.93;;;;;;;17.58;67.74;100199.00;5058420;28;20131;-29
2022/09/08 04:58:03;;;;;;;11.18;10.05;;;;;;;17.57;68.86;100214.09;5086319;28;20047;-27
2022/09/08 05:00:28;;;;;;;11.20;10.02;;;;;;;17.61;68.67;100217.47;5081082;28;20032;-27
2022/09/08 05:02:53;;;;;;;11.20;10.10;;;;;;;17.60;67.83;100210.44;5062048;28;20098;-27
2022/09/08 05:05:19;;;;;;;12.75;10.27;;;;;;;17.67;68.91;100208.34;5086286;28;20028;-27
2022/09/08 05:07:44;;;;;;;11.68;10.50;;;;;;;17.68;69.16;100205.59;5088845;28;20383;-27
2022/09/08 05:10:09;;;;;;;11.60;10.40;;;;;;;17.65;69.48;100208.44;5077312;28;20024;-27
2022/09/08 05:12:34;;;;;;;14.43;10.93;;;;;;;17.66;69.91;100203.94;5078610;28;20093;-26
2022/09/08 05:15:00;;;;;;;12.30;11.02;;;;;;;17.69;69.54;100204.69;5069003;28;20066;-27
2022/09/08 05:17:29;;;;;;;13.27;11.95;;;;;;;17.72;71.45;100206.34;5081075;28;20021;-27
2022/09/08 05:19:54;;;;;;;11.88;10.50;;;;;;;17.72;71.51;100200.13;5065251;28;20029;-27
2022/09/08 05:22:19;;;;;;;13.05;11.68;;;;;;;17.71;72.83;100191.28;5081631;28;20034;-29
2022/09/08 05:24:44;;;;;;;14.88;12.15;;;;;;;17.73;73.02;100186.72;5086752;28;20472;-27
2022/09/08 05:27:10;;;;;;;16.58;10.95;;;;;;;17.72;72.40;100177.00;5073345;28;20031;-27
2022/09/08 05:29:35;;;;;;;18.63;13.52;;;;;;;17.75;72.81;100168.00;5071249;28;20051;-27
2022/09/08 05:32:00;;;;;;;16.02;12.00;;;;;;;17.68;70.62;100168.28;5044377;28;20034;-27
2022/09/08 05:34:28;;;;;;;13.70;11.55;;;;;;;17.76;70.22;100162.59;5084362;28;20464;-27
2022/09/08 05:36:54;;;;;;;15.43;12.18;;;;;;;17.72;70.06;100153.00;5072959;28;20047;-27
2022/09/08 05:39:19;;;;;;;13.68;11.02;;;;;;;17.69;69.65;100143.34;5083289;28;20035;-28
2022/09/08 05:41:44;;;;;;;15.52;11.10;;;;;;;17.67;71.69;100117.66;5084306;28;20020;-27
2022/09/08 05:44:13;;;;;;;11.75;10.52;;;;;;;17.75;70.27;100098.66;5071811;28;20048;-26
2022/09/08 05:46:38;;;;;;;13.90;11.05;;;;;;;17.70;70.29;100098.88;5055130;28;20032;-26
2022/09/08 05:49:04;;;;;;;13.98;10.93;;;;;;;17.73;70.29;100104.06;5072319;28;20029;-27
2022/09/08 05:51:32;;;;;;;9.90;8.77;;;;;;;17.76;69.67;100103.03;5072209;28;20035;-27
2022/09/08 05:53:59;;;;;;;11.80;10.43;;;;;;;17.73;68.40;100105.84;5084000;28;20024;-27
2022/09/08 05:56:24;;;;;;;11.45;9.90;;;;;;;17.74;69.42;100094.25;5075281;28;20024;-27
2022/09/08 05:58:52;;;;;;;13.57;10.10;;;;;;;17.71;69.69;100084.63;5074610;28;20028;-27
2022/09/08 06:01:18;;;;;;;11.98;9.85;;;;;;;17.73;70.12;100088.06;5072376;28;20042;-27
2022/09/08 06:03:43;;;;;;;10.65;9.40;;;;;;;17.72;69.27;100073.00;5071246;28;20419;-27
2022/09/08 06:06:10;;;;;;;11.43;9.25;;;;;;;17.72;69.49;100072.13;5071393;28;20086;-27
2022/09/08 06:08:37;;;;;;;10.60;9.05;;;;;;;17.70;69.11;100072.19;5054254;28;20479;-27
2022/09/08 06:11:03;;;;;;;10.70;9.15;;;;;;;17.72;69.69;100059.66;5079341;28;20035;-27
2022/09/08 06:13:30;;;;;;;9.80;8.80;;;;;;;17.77;69.94;100062.97;5081319;28;20423;-27
2022/09/08 06:16:02;;;;;;;10.25;8.60;;;;;;;17.77;68.69;100052.28;5072788;28;20494;-26
2022/09/08 06:18:31;;;;;;;9.23;8.23;;;;;;;17.80;70.75;100045.94;5073587;28;20053;-27
2022/09/08 06:20:57;;;;;;;9.45;8.45;;;;;;;17.77;70.59;100041.63;5092336;28;20487;-28
2022/09/08 06:23:22;;;;;;;9.90;8.27;;;;;;;17.78;70.68;100039.84;5091259;28;20596;-27
2022/09/08 06:25:47;;;;;;;8.90;7.65;;;;;;;17.83;69.30;100041.34;5078452;28;20081;-26
2022/09/08 06:28:37;;;;;;;8.93;7.63;;;;;;;17.90;69.40;100041.00;5092067;28;20023;-28
2022/09/08 06:31:07;;;;;;;10.38;7.90;;;;;;;17.92;70.45;100028.47;5074484;28;20062;-28
2022/09/08 06:33:38;;;;;;;9.38;7.60;;;;;;;17.95;68.31;100029.16;5091745;28;20028;-28
2022/09/08 06:36:12;;;;;;;;;;;;;;;17.96;69.07;100019.38;5068215;28;20032;-28
2022/09/08 06:38:56;;;;;;;7.03;6.25;;;;;;;17.99;70.79;100023.69;5062291;28;19916;-28
2022/09/08 06:41:28;;;;;;;6.95;6.20;;;;;;;18.04;70.04;100022.50;5064931;28;20032;-28
2022/09/08 06:43:58;;;;;;;7.18;6.35;;;;;;;18.10;67.57;100021.38;5071495;28;20012;-28
2022/09/08 06:46:29;;;;;;;6.95;6.25;;;;;;;18.14;69.72;100017.59;5071694;28;20028;-28
2022/09/08 06:48:54;;;;;;;;;;;;;;;18.20;67.26;100016.41;5053433;28;20032;-28
2022/09/08 06:51:45;;;;;;;7.05;6.00;;;;;;;18.24;67.96;100009.97;5071897;28;19931;-28
2022/09/08 06:54:30;;;;;;;;;;;;;;;18.24;68.00;100003.78;5073062;28;20296;-28
2022/09/08 06:57:07;;;;;;;6.22;5.60;;;;;;;18.27;67.51;100001.81;5085404;28;20290;-28
2022/09/08 06:59:38;;;;;;;7.95;5.53;;;;;;;18.32;67.22;99994.44;5073743;28;20020;-28
2022/09/08 07:02:06;;;;;;;6.68;5.35;;;;;;;18.35;66.85;99993.41;5082506;28;20448;-28
2022/09/08 07:05:04;;;;;;;5.32;4.85;;;;;;;18.34;66.93;100000.53;5087583;28;20139;-28
2022/09/08 07:07:47;;;;;;;6.10;5.50;;;;;;;18.36;66.71;99989.78;5090910;28;20069;-28
2022/09/08 07:10:24;;;;;;;8.00;5.90;;;;;;;18.37;66.95;99996.84;5086135;28;20051;-28
2022/09/08 07:13:06;;;;;;;6.55;4.93;;;;;;;18.40;67.63;100011.84;5053305;28;20048;-28
2022/09/08 07:15:59;;;;;;;7.43;5.68;;;;;;;18.43;66.73;100006.34;5068623;28;20029;-28
2022/09/08 07:18:28;;;;;;;5.38;4.85;;;;;;;18.45;66.86;100009.81;5075089;28;20031;-28
2022/09/08 07:21:14;;;;;;;8.55;5.57;;;;;;;18.48;67.79;100008.78;5057615;28;20025;-28
2022/09/08 07:23:40;;;;;;;7.00;5.15;;;;;;;18.50;67.58;100007.75;5082294;28;20024;-28
2022/09/08 07:26:20;;;;;;;5.28;4.78;;;;;;;18.52;67.69;100021.00;5063024;28;20032;-28
2022/09/08 07:28:50;;;;;;;5.35;4.85;;;;;;;18.54;67.71;100021.81;5056986;28;20021;-28
2022/09/08 07:31:21;;;;;;;6.07;5.35;;;;;;;18.55;68.51;100027.06;5057257;28;20529;-29
2022/09/08 07:33:49;;;;;;;5.82;4.90;;;;;;;18.57;67.34;100038.50;5056425;28;20029;-29
2022/09/08 07:36:40;;;;;;;4.70;4.30;;;;;;;18.59;67.30;100049.13;5057609;28;20039;-26
2022/09/08 07:39:15;;;;;;;;;;;;;;;18.61;67.14;100065.06;5080520;28;20032;-28
2022/09/08 07:41:53;;;;;;;5.80;5.15;;;;;;;18.61;72.28;100067.75;5094600;28;20363;-28
2022/09/08 07:44:19;;;;;;;4.90;4.50;;;;;;;18.61;67.96;100065.06;5094799;28;20032;-28
2022/09/08 07:47:01;;;;;;;6.35;5.75;;;;;;;18.66;68.84;100060.34;5086687;28;20053;-29
2022/09/08 07:49:36;;;;;;;9.40;5.97;;;;;;;18.65;68.94;100056.81;5062025;28;20101;-28
2022/09/08 07:52:36;;;;;;;7.80;5.97;;;;;;;18.68;68.82;100058.47;5093315;28;20115;-28
2022/09/08 07:55:27;;;;;;;7.63;6.65;;;;;;;18.71;70.04;100047.63;5089094;28;20490;-28
2022/09/08 07:57:59;;;;;;;6.72;6.05;;;;;;;18.72;70.40;100039.53;5076800;28;20399;-28
2022/09/08 08:00:35;;;;;;;7.05;6.35;;;;;;;18.74;69.50;100035.91;5073316;28;20032;-28
2022/09/08 08:03:15;;;;;;;6.13;5.63;;;;;;;18.73;70.03;100024.34;5056179;28;20060;-28
2022/09/08 08:06:30;;;;;;;7.05;6.35;;;;;;;18.69;72.76;100028.13;5074565;28;20036;-28
2022/09/08 08:09:13;;;;;;;8.57;6.05;;;;;;;18.65;73.22;100032.78;5014157;28;20388;-28
2022/09/08 08:11:59;;;;;;;7.50;6.80;;;;;;;18.62;73.78;100022.25;5074937;28;20119;-28
2022/09/08 08:14:46;;;;;;;7.13;5.80;;;;;;;18.65;73.19;100031.91;5073910;28;20429;-28
2022/09/08 08:17:45;;;;;;;7.35;6.57;;;;;;;18.66;74.54;100028.28;5063420;28;20456;-28
2022/09/08 08:20:32;;;;;;;8.40;6.75;;;;;;;18.66;74.57;100023.81;5069354;28;20043;-28
2022/09/08 08:23:09;;;;;;;8.50;6.88;;;;;;;18.66;73.46;100030.97;5073245;28;20035;-28
2022/09/08 08:26:09;;;;;;;8.43;7.05;;;;;;;18.68;73.52;100037.94;5076499;28;20024;-28
2022/09/08 08:28:42;;;;;;;8.85;6.82;;;;;;;18.69;73.94;100044.16;5070730;28;20050;-28
2022/09/08 08:31:33;;;;;;;6.78;5.95;;;;;;;18.69;73.44;100044.16;5093913;28;20039;-28
2022/09/08 08:34:03;;;;;;;;;;;;;;;18.72;73.78;100068.03;5059339;28;20036;-29
2022/09/08 08:36:39;;;;;;;7.22;6.63;;;;;;;18.71;72.59;100074.31;5091284;28;19912;-28
2022/09/08 08:39:17;;;;;;;7.65;6.80;;;;;;;18.72;73.42;100074.25;5080227;28;20020;-29
2022/09/08 08:41:46;;;;;;;8.23;7.03;;;;;;;18.75;75.23;100075.88;5075160;28;20510;-29
2022/09/08 08:44:53;;;;;;;8.18;7.10;;;;;;;18.73;73.99;100072.41;5092485;28;20531;-28
2022/09/08 08:47:33;;;;;;;7.60;6.50;;;;;;;18.76;74.27;100072.25;5082984;28;20024;-29
2022/09/08 08:50:21;;;;;;;7.65;6.28;;;;;;;18.76;73.87;100076.72;5087668;28;20102;-29
2022/09/08 08:53:24;;;;;;;6.78;6.07;;;;;;;18.79;74.68;100077.44;5075367;28;20055;-28
2022/09/08 08:56:16;;;;;;;7.88;7.18;;;;;;;18.75;75.18;100070.53;5093045;28;20036;-28
2022/09/08 08:58:47;;;;;;;9.93;6.55;;;;;;;18.80;74.71;100076.50;5075704;28;20046;-28
2022/09/08 09:01:15;;;;;;;7.88;6.93;;;;;;;18.81;75.82;100070.19;5087415;28;20028;-28
2022/09/08 09:04:09;;;;;;;7.50;6.78;;;;;;;18.82;76.19;100081.75;5091394;28;20045;-28
2022/09/08 09:06:43;;;;;;;11.55;6.93;;;;;;;18.83;76.35;100079.00;5094093;28;20020;-28
2022/09/08 09:09:23;;;;;;;8.82;7.43;;;;;;;18.84;76.50;100082.56;5093534;28;20524;-28
2022/09/08 09:12:07;;;;;;;7.10;6.40;;;;;;;18.84;74.38;100069.19;5093462;28;20108;-28
2022/09/08 09:15:09;;;;;;;7.65;6.85;;;;;;;18.87;76.87;100068.16;5055657;28;20045;-28
2022/09/08 09:18:02;;;;;;;8.40;7.55;;;;;;;18.89;77.54;100071.59;5071420;28;20032;-28
2022/09/08 09:20:36;;;;;;;6.88;6.20;;;;;;;18.89;77.23;100071.59;5110755;22;20559;-24
2022/09/08 09:23:28;;;;;;;7.18;6.47;;;;;;;18.91;76.45;100064.38;5066797;28;20051;-24
2022/09/08 09:26:15;;;;;;;7.53;6.78;;;;;;;18.92;76.47;100066.09;5055141;28;20471;-24
2022/09/08 09:28:56;;;;;;;6.28;5.68;;;;;;;18.92;75.92;100068.78;5055457;28;20028;-24
2022/09/08 09:31:32;;;;;;;7.72;6.60;;;;;;;18.93;75.39;100071.38;5062275;28;20048;-24
2022/09/08 09:34:27;;;;;;;7.75;6.70;;;;;;;18.95;76.81;100066.81;5048170;28;20483;-26
2022/09/08 09:37:24;;;;;;;7.07;6.38;;;;;;;18.94;74.74;100059.72;5072531;28;20025;-26
2022/09/08 09:40:15;;;;;;;7.70;6.85;;;;;;;18.95;76.26;100060.59;5063833;28;20545;-26
2022/09/08 09:42:47;;;;;;;;;;;;;;;18.95;75.56;100071.28;5072700;28;20020;-26
2022/09/08 09:45:30;;;;;;;7.10;6.40;;;;;;;18.96;77.04;100056.97;5054209;28;19947;-24
2022/09/08 09:48:04;;;;;;;6.68;5.97;;;;;;;18.95;76.35;100056.13;5042748;28;20476;-25
2022/09/08 09:50:40;;;;;;;6.63;6.10;;;;;;;18.96;77.67;100056.97;5052518;28;20429;-24
2022/09/08 09:53:43;;;;;;;7.60;6.55;;;;;;;18.96;77.51;100051.63;5034525;28;20120;-24
2022/09/08 09:56:44;;;;;;;7.50;6.78;;;;;;;18.95;76.48;100060.59;5072668;28;20438;-24
2022/09/08 09:59:47;;;;;;;6.30;5.70;;;;;;;18.95;77.35;100056.13;5070068;28;20025;-24
2022/09/08 10:02:27;;;;;;;6.68;6.07;;;;;;;18.96;76.91;100046.28;5060279;28;20107;-26
2022/09/08 10:05:49;;;;;;;6.60;5.90;;;;;;;18.95;76.34;100044.56;5072103;28;20021;-26
2022/09/08 10:08:40;;;;;;;7.90;6.40;;;;;;;18.97;76.63;100040.84;4990786;28;20050;-26
2022/09/08 10:11:25;;;;;;;6.53;5.30;;;;;;;18.98;75.64;100036.38;4990848;28;20530;-26
2022/09/08 10:14:23;;;;;;;6.20;5.60;;;;;;;19.00;76.28;100037.16;5045929;28;20040;-26
2022/09/08 10:17:02;;;;;;;4.72;4.32;;;;;;;19.02;76.54;100024.56;5064993;28;20124;-26
2022/09/08 10:19:46;;;;;;;5.47;4.70;;;;;;;19.04;77.99;100025.34;5070617;28;20119;-26
2022/09/08 10:22:46;;;;;;;4.95;4.55;;;;;;;19.05;78.16;100012.84;5072250;28;20036;-26
2022/09/08 10:25:49;;;;;;;4.30;3.90;;;;;;;19.06;78.05;100004.78;5072591;28;20032;-26
2022/09/08 10:28:45;;;;;;;5.90;4.60;;;;;;;19.07;78.27;100006.50;5054110;28;20115;-25
2022/09/08 10:31:29;;;;;;;4.53;4.13;;;;;;;19.07;78.28;100010.97;5061022;28;20035;-26
2022/09/08 10:34:01;;;;;;;5.88;4.55;;;;;;;19.07;79.16;100000.28;5051768;28;20036;-26
2022/09/08 10:37:04;;;;;;;7.13;4.60;;;;;;;19.08;78.42;100002.88;5034201;28;20033;-26
2022/09/08 10:39:59;;;;;;;6.20;4.72;;;;;;;19.08;76.19;99997.53;5064825;28;20021;-27
2022/09/08 10:42:48;;;;;;;4.65;4.10;;;;;;;19.10;76.51;99994.78;5071875;28;20036;-26
2022/09/08 10:45:24;;;;;;;5.10;4.60;;;;;;;19.13;78.32;99993.72;5072466;28;20040;-26
2022/09/08 10:48:13;;;;;;;5.78;4.97;;;;;;;19.11;76.50;99983.16;5074801;28;20051;-26
2022/09/08 10:50:52;;;;;;;5.30;4.80;;;;;;;19.13;77.14;99986.59;5074700;28;20069;-26
2022/09/08 10:53:36;;;;;;;5.65;5.15;;;;;;;19.13;76.90;99985.72;5095826;28;20031;-26
2022/09/08 10:56:06;;;;;;;7.90;5.07;;;;;;;19.14;77.28;99995.47;5096781;28;20035;-26
2022/09/08 10:59:08;;;;;;;5.65;5.07;;;;;;;19.14;78.01;99987.47;5090091;28;20089;-26
2022/09/08 11:02:06;;;;;;;6.45;5.25;;;;;;;19.14;77.55;99979.44;5056174;28;20056;-26
2022/09/08 11:04:51;;;;;;;5.78;5.10;;;;;;;19.14;77.35;99984.78;5056281;28;20021;-26
2022/09/08 11:07:42;;;;;;;5.88;5.20;;;;;;;19.14;76.76;99979.44;5056209;28;20044;-26
2022/09/08 11:10:37;;;;;;;;;;;;;;;19.17;77.16;99982.78;5078326;28;20027;-26
2022/09/08 11:13:20;;;;;;;5.03;4.53;;;;;;;19.17;76.78;99979.28;5068907;28;19916;-26
2022/09/08 11:16:16;;;;;;;6.15;4.30;;;;;;;19.19;76.65;99982.72;5078161;28;20040;-26
2022/09/08 11:19:00;;;;;;;5.97;5.43;;;;;;;19.20;76.28;99985.31;5037199;28;20029;-24
2022/09/08 11:21:31;;;;;;;5.50;4.90;;;;;;;19.21;77.42;99992.34;5037579;28;20377;-24
2022/09/08 11:24:24;;;;;;;5.47;4.95;;;;;;;19.21;77.35;99987.00;5037317;28;20048;-24
2022/09/08 11:27:07;;;;;;;5.47;4.95;;;;;;;19.24;78.10;99980.63;5061743;28;20487;-24
2022/09/08 11:29:37;;;;;;;5.65;5.20;;;;;;;19.27;78.90;99985.81;5074004;28;20030;-24
2022/09/08 11:32:16;;;;;;;6.57;5.97;;;;;;;19.30;80.17;99990.09;5075335;28;20377;-24
2022/09/08 11:35:07;;;;;;;6.50;5.43;;;;;;;19.31;80.47;99992.69;5053456;28;20120;-24
2022/09/08 11:38:10;;;;;;;7.75;6.50;;;;;;;19.31;80.19;99995.38;5055394;28;20028;-24
2022/09/08 11:41:11;;;;;;;6.70;4.50;;;;;;;19.30;78.66;99996.34;5054757;28;20025;-24
2022/09/08 11:43:44;;;;;;;5.25;3.58;;;;;;;19.30;78.74;99995.47;5062192;28;20013;-24
2022/09/08 11:46:31;;;;;;;5.15;3.25;;;;;;;19.27;78.68;100001.84;5083198;28;20481;-24
2022/09/08 11:49:21;;;;;;;2.80;2.47;;;;;;;19.25;78.56;100002.88;5068798;28;20459;-24
2022/09/08 11:52:15;;;;;;;3.53;2.80;;;;;;;19.26;77.62;100010.81;5067577;28;20106;-24
2022/09/08 11:55:14;;;;;;;2.78;2.42;;;;;;;19.25;77.23;100006.44;5075025;28;20815;-24
2022/09/08 11:58:05;;;;;;;2.90;2.60;;;;;;;19.28;76.28;100008.94;5064487;28;20040;-24
2022/09/08 12:01:09;;;;;;;2.67;2.42;;;;;;;19.27;76.76;100015.22;5064598;28;20024;-24
2022/09/08 12:03:53;;;;;;;2.45;2.25;;;;;;;19.26;76.36;100009.94;5052255;28;20515;-24
2022/09/08 12:06:49;;;;;;;3.28;2.33;;;;;;;19.26;76.05;100018.84;5054707;28;20033;-24
2022/09/08 12:09:52;;;;;;;2.97;2.75;;;;;;;19.25;76.63;100021.59;5074348;28;20549;-24
2022/09/08 12:12:29;;;;;;;2.78;2.30;;;;;;;19.24;77.01;100028.75;5074441;28;20108;-24
2022/09/08 12:15:16;;;;;;;2.65;2.40;;;;;;;19.24;76.60;100018.03;5074112;28;20391;-24
2022/09/08 12:17:54;;;;;;;4.28;2.85;;;;;;;19.25;75.98;100011.78;5077815;28;20768;-24